Time,TemperatureF,DewpointF,PressureIn,WindDirection,WindDirectionDegrees,WindSpeedMPH,WindSpeedGustMPH,Humidity,HourlyPrecipIn,Conditions,Clouds,dailyrainin,SoftwareType,DateUTC
2013-03-29 00:03:00,32.2,21.7,30.25,ESE,112,0.0,0.0,65,0.00,CLR,CLR,0.00,WeatherDisplay:10.37,2013-03-29 05:03:00,
2013-03-29 00:09:00,32.2,21.7,30.24,ESE,112,0.2,2.3,65,0.00,CLR,CLR,0.00,WeatherDisplay:10.37,2013-03-29 05:09:00,
2013-03-29 00:14:00,32.2,22.1,30.24,ESE,112,0.0,0.0,66,0.00,CLR,CLR,0.00,WeatherDisplay:10.37,2013-03-29 05:14:00,
2013-03-29 00:19:00,31.8,21.7,30.25,East,90,0.6,1.3,66,0.00,CLR,CLR,0.00,WeatherDisplay:10.37,2013-03-29 05:19:00,
2013-03-29 00:24:00,31.8,21.7,30.24,ESE,112,1.0,1.2,66,0.00,CLR,CLR,0.00,WeatherDisplay:10.37,2013-03-29 05:24:00,
2013-03-29 00:29:00,31.6,21.9,30.24,ESE,112,1.5,2.3,67,0.00,CLR,CLR,0.00,WeatherDisplay:10.37,2013-03-29 05:29:00,
2013-03-29 00:34:00,31.5,21.8,30.24,SE,135,1.7,3.6,67,0.00,CLR,CLR,0.00,WeatherDisplay:10.37,2013-03-29 05:34:00,
2013-03-29 00:39:00,31.3,21.6,30.24,ESE,112,1.6,1.6,67,0.00,CLR,CLR,0.00,WeatherDisplay:10.37,2013-03-29 05:39:00,
2013-03-29 00:44:00,31.1,21.4,30.24,SE,135,1.7,3.5,67,0.00,CLR,CLR,0.00,WeatherDisplay:10.37,2013-03-29 05:44:00,
2013-03-29 00:50:00,30.9,21.6,30.24,ESE,112,1.5,2.3,68,0.00,CLR,CLR,0.00,WeatherDisplay:10.37,2013-03-29 05:50:00,
2013-03-29 00:55:00,30.7,21.8,30.24,ESE,112,2.5,2.5,69,0.00,CLR,CLR,0.00,WeatherDisplay:10.37,2013-03-29 05:55:00,
2013-03-29 01:00:00,30.7,21.8,30.24,ESE,112,1.6,3.5,69,0.00,CLR,CLR,0.00,WeatherDisplay:10.37,2013-03-29 06:00:00,
2013-03-29 01:05:00,30.7,21.8,30.24,East,90,2.8,3.5,69,0.00,CLR,CLR,0.00,WeatherDisplay:10.37,2013-03-29 06:05:00,
2013-03-29 01:10:00,30.6,21.9,30.24,ESE,112,2.6,3.5,70,0.00,CLR,CLR,0.00,WeatherDisplay:10.37,2013-03-29 06:10:00,
2013-03-29 01:15:00,30.4,21.8,30.24,SE,135,1.4,2.3,70,0.00,CLR,CLR,0.00,WeatherDisplay:10.37,2013-03-29 06:15:00,
2013-03-29 01:20:00,30.4,21.8,30.25,East,90,0.2,2.3,70,0.00,CLR,CLR,0.00,WeatherDisplay:10.37,2013-03-29 06:20:00,
2013-03-29 01:25:00,30.0,21.8,30.25,ESE,112,0.2,0.0,71,0.00,CLR,CLR,0.00,WeatherDisplay:10.37,2013-03-29 06:25:00,
2013-03-29 01:30:00,30.0,21.8,30.25,ESE,112,1.5,3.5,71,0.00,CLR,CLR,0.00,WeatherDisplay:10.37,2013-03-29 06:30:00,
2013-03-29 01:35:00,30.0,21.8,30.25,SE,135,1.5,3.5,71,0.00,CLR,CLR,0.00,WeatherDisplay:10.37,2013-03-29 06:35:00,
2013-03-29 01:40:00,30.0,21.8,30.25,SE,135,0.2,1.8,71,0.00,CLR,CLR,0.00,WeatherDisplay:10.37,2013-03-29 06:40:00,
2013-03-29 01:45:00,29.8,21.6,30.25,SE,135,2.7,3.5,71,0.00,CLR,CLR,0.00,WeatherDisplay:10.37,2013-03-29 06:45:00,
2013-03-29 01:50:00,29.8,21.9,30.25,ESE,112,1.6,3.5,72,0.00,CLR,CLR,0.00,WeatherDisplay:10.37,2013-03-29 06:50:00,
2013-03-29 01:56:00,29.8,21.9,30.25,SE,135,1.9,3.5,72,0.00,CLR,CLR,0.00,WeatherDisplay:10.37,2013-03-29 06:56:00,
2013-03-29 02:01:00,29.8,21.9,30.25,SE,135,1.5,3.5,72,0.00,CLR,CLR,0.00,WeatherDisplay:10.37,2013-03-29 07:01:00,
2013-03-29 02:06:00,29.8,22.2,30.25,ESE,112,2.2,3.5,73,0.00,CLR,CLR,0.00,WeatherDisplay:10.37,2013-03-29 07:06:00,
2013-03-29 02:12:00,30.0,22.4,30.25,ESE,112,4.0,5.8,73,0.00,CLR,CLR,0.00,WeatherDisplay:10.37,2013-03-29 07:12:00,
2013-03-29 02:17:00,30.0,22.4,30.25,SE,135,4.3,4.6,73,0.00,CLR,CLR,0.00,WeatherDisplay:10.37,2013-03-29 07:17:00,
2013-03-29 02:22:00,30.2,22.6,30.25,SSE,158,2.2,5.8,73,0.00,CLR,CLR,0.00,WeatherDisplay:10.37,2013-03-29 07:22:00,
2013-03-29 02:28:00,30.4,22.8,30.25,SSE,158,3.4,5.8,73,0.00,CLR,CLR,0.00,WeatherDisplay:10.37,2013-03-29 07:28:00,
2013-03-29 02:33:00,30.4,22.8,30.24,SE,135,1.7,3.5,73,0.00,CLR,CLR,0.00,WeatherDisplay:10.37,2013-03-29 07:33:00,
2013-03-29 02:38:00,30.4,22.8,30.25,SE,135,2.7,5.8,73,0.00,CLR,CLR,0.00,WeatherDisplay:10.37,2013-03-29 07:38:00,
2013-03-29 02:43:00,30.4,22.8,30.25,SE,135,3.0,4.2,73,0.00,CLR,CLR,0.00,WeatherDisplay:10.37,2013-03-29 07:43:00,
2013-03-29 02:48:00,30.6,23.3,30.24,SE,135,3.6,3.6,74,0.00,CLR,CLR,0.00,WeatherDisplay:10.37,2013-03-29 07:48:00,
2013-03-29 02:54:00,30.7,23.4,30.24,SE,135,1.8,3.5,74,0.00,CLR,CLR,0.00,WeatherDisplay:10.37,2013-03-29 07:54:00,
2013-03-29 02:59:00,30.9,23.6,30.25,SE,135,1.9,3.5,74,0.00,CLR,CLR,0.00,WeatherDisplay:10.37,2013-03-29 07:59:00,
2013-03-29 03:04:00,31.3,24.0,30.24,East,90,3.0,4.6,74,0.00,CLR,CLR,0.00,WeatherDisplay:10.37,2013-03-29 08:04:00,
2013-03-29 03:09:00,31.6,24.3,30.24,SE,135,2.5,4.7,74,0.00,CLR,CLR,0.00,WeatherDisplay:10.37,2013-03-29 08:09:00,
2013-03-29 03:14:00,31.6,24.3,30.25,SE,135,2.8,3.5,74,0.00,CLR,CLR,0.00,WeatherDisplay:10.37,2013-03-29 08:14:00,
2013-03-29 03:19:00,31.8,24.5,30.25,SE,135,4.0,5.8,74,0.00,CLR,CLR,0.00,WeatherDisplay:10.37,2013-03-29 08:19:00,
2013-03-29 03:24:00,31.8,24.5,30.25,SSE,158,2.4,4.6,74,0.00,CLR,CLR,0.00,WeatherDisplay:10.37,2013-03-29 08:24:00,
2013-03-29 03:30:00,32.2,24.5,30.25,SSE,158,1.4,3.5,73,0.00,CLR,CLR,0.00,WeatherDisplay:10.37,2013-03-29 08:30:00,
2013-03-29 03:35:00,32.2,24.5,30.25,SE,135,2.3,4.5,73,0.00,CLR,CLR,0.00,WeatherDisplay:10.37,2013-03-29 08:35:00,
2013-03-29 03:40:00,32.4,24.7,30.24,SSE,158,4.9,5.8,73,0.00,CLR,CLR,0.00,WeatherDisplay:10.37,2013-03-29 08:40:00,
2013-03-29 03:45:00,32.4,24.7,30.24,SE,135,3.2,4.6,73,0.00,CLR,CLR,0.00,WeatherDisplay:10.37,2013-03-29 08:45:00,
2013-03-29 03:50:00,32.4,24.7,30.24,SE,135,3.9,5.1,73,0.00,CLR,CLR,0.00,WeatherDisplay:10.37,2013-03-29 08:50:00,
2013-03-29 03:56:00,32.4,24.7,30.24,SSE,158,2.8,4.6,73,0.00,CLR,CLR,0.00,WeatherDisplay:10.37,2013-03-29 08:56:00,
2013-03-29 04:01:00,32.4,24.7,30.24,SE,135,3.0,4.0,73,0.00,CLR,CLR,0.00,WeatherDisplay:10.37,2013-03-29 09:01:00,
2013-03-29 04:06:00,32.4,24.7,30.24,South,180,3.0,3.0,73,0.00,CLR,CLR,0.00,WeatherDisplay:10.37,2013-03-29 09:06:00,
2013-03-29 04:12:00,32.5,24.8,30.23,SE,135,2.3,3.5,73,0.00,CLR,CLR,0.00,WeatherDisplay:10.37,2013-03-29 09:12:00,
2013-03-29 04:17:00,32.7,25.0,30.23,ESE,112,1.5,2.3,73,0.00,CLR,CLR,0.00,WeatherDisplay:10.37,2013-03-29 09:17:00,
2013-03-29 04:22:00,32.7,25.0,30.23,SE,135,2.4,3.5,73,0.00,CLR,CLR,0.00,WeatherDisplay:10.37,2013-03-29 09:22:00,
2013-03-29 04:27:00,32.7,25.0,30.23,ESE,112,3.6,4.6,73,0.00,CLR,CLR,0.00,WeatherDisplay:10.37,2013-03-29 09:27:00,
2013-03-29 04:32:00,32.7,25.0,30.23,SE,135,3.5,5.8,73,0.00,CLR,CLR,0.00,WeatherDisplay:10.37,2013-03-29 09:32:00,
2013-03-29 04:37:00,32.7,25.0,30.23,SE,135,4.5,5.8,73,0.00,CLR,CLR,0.00,WeatherDisplay:10.37,2013-03-29 09:37:00,
2013-03-29 04:42:00,32.7,25.0,30.23,SE,135,3.2,4.6,73,0.00,CLR,CLR,0.00,WeatherDisplay:10.37,2013-03-29 09:42:00,
2013-03-29 04:47:00,32.5,24.5,30.22,SSE,158,3.1,4.6,72,0.00,CLR,CLR,0.00,WeatherDisplay:10.37,2013-03-29 09:47:00,
2013-03-29 04:53:00,32.4,24.3,30.22,SE,135,4.1,4.6,72,0.00,CLR,CLR,0.00,WeatherDisplay:10.37,2013-03-29 09:53:00,
2013-03-29 04:58:00,32.2,24.2,30.21,SSE,158,3.3,4.6,72,0.00,CLR,CLR,0.00,WeatherDisplay:10.37,2013-03-29 09:58:00,
2013-03-29 05:03:00,31.8,24.1,30.22,SE,135,2.2,4.6,73,0.00,CLR,CLR,0.00,WeatherDisplay:10.37,2013-03-29 10:03:00,
2013-03-29 05:08:00,31.6,24.0,30.22,SE,135,2.8,4.2,73,0.00,CLR,CLR,0.00,WeatherDisplay:10.37,2013-03-29 10:08:00,
2013-03-29 05:13:00,31.3,23.6,30.22,ESE,112,3.4,3.5,73,0.00,CLR,CLR,0.00,WeatherDisplay:10.37,2013-03-29 10:13:00,
2013-03-29 05:18:00,31.1,23.5,30.21,ESE,112,2.3,4.6,73,0.00,CLR,CLR,0.00,WeatherDisplay:10.37,2013-03-29 10:18:00,
2013-03-29 05:23:00,31.1,23.5,30.21,ESE,112,1.8,3.5,73,0.00,CLR,CLR,0.00,WeatherDisplay:10.37,2013-03-29 10:23:00,
2013-03-29 05:28:00,30.9,23.3,30.22,SSE,158,2.0,3.5,73,0.00,CLR,CLR,0.00,WeatherDisplay:10.37,2013-03-29 10:28:00,
2013-03-29 05:33:00,30.7,23.4,30.22,SE,135,3.0,4.0,74,0.00,CLR,CLR,0.00,WeatherDisplay:10.37,2013-03-29 10:33:00,
2013-03-29 05:38:00,30.7,23.4,30.21,SE,135,2.9,4.6,74,0.00,CLR,CLR,0.00,WeatherDisplay:10.37,2013-03-29 10:38:00,
2013-03-29 05:44:00,30.6,23.6,30.21,SE,135,5.2,6.9,75,0.00,CLR,CLR,0.00,WeatherDisplay:10.37,2013-03-29 10:44:00,
2013-03-29 05:49:00,30.4,23.4,30.21,SE,135,3.1,3.6,75,0.00,CLR,CLR,0.00,WeatherDisplay:10.37,2013-03-29 10:49:00,
2013-03-29 05:54:00,30.4,23.4,30.21,SE,135,3.3,4.6,75,0.00,CLR,CLR,0.00,WeatherDisplay:10.37,2013-03-29 10:54:00,
2013-03-29 05:59:00,30.2,23.2,30.21,SSE,158,3.2,4.6,75,0.00,CLR,CLR,0.00,WeatherDisplay:10.37,2013-03-29 10:59:00,
2013-03-29 06:05:00,30.0,23.1,30.21,SE,135,1.8,4.6,75,0.00,CLR,CLR,0.00,WeatherDisplay:10.37,2013-03-29 11:05:00,
2013-03-29 06:10:00,30.2,23.5,30.21,SE,135,3.6,4.6,76,0.00,CLR,CLR,0.00,WeatherDisplay:10.37,2013-03-29 11:10:00,
2013-03-29 06:15:00,30.0,23.4,30.21,SE,135,3.8,4.6,76,0.00,CLR,CLR,0.00,WeatherDisplay:10.37,2013-03-29 11:15:00,
2013-03-29 06:20:00,30.2,23.5,30.21,ESE,112,3.9,4.6,76,0.00,CLR,CLR,0.00,WeatherDisplay:10.37,2013-03-29 11:20:00,
2013-03-29 06:25:00,30.2,23.5,30.21,SSE,158,3.1,4.6,76,0.00,CLR,CLR,0.00,WeatherDisplay:10.37,2013-03-29 11:25:00,
2013-03-29 06:30:00,30.4,23.7,30.21,SSE,158,2.7,5.8,76,0.00,CLR,CLR,0.00,WeatherDisplay:10.37,2013-03-29 11:30:00,
2013-03-29 06:36:00,30.2,23.5,30.21,SE,135,4.8,5.8,76,0.00,CLR,CLR,0.00,WeatherDisplay:10.37,2013-03-29 11:36:00,
2013-03-29 06:41:00,30.2,23.5,30.22,East,90,3.2,3.5,76,0.00,CLR,CLR,0.00,WeatherDisplay:10.37,2013-03-29 11:41:00,
2013-03-29 06:46:00,30.0,23.4,30.22,East,90,2.7,3.5,76,0.00,CLR,CLR,0.00,WeatherDisplay:10.37,2013-03-29 11:46:00,
2013-03-29 06:51:00,29.8,23.5,30.21,SE,135,2.2,3.5,77,0.00,CLR,CLR,0.00,WeatherDisplay:10.37,2013-03-29 11:51:00,
2013-03-29 06:57:00,29.8,23.5,30.22,East,90,2.3,3.5,77,0.00,CLR,CLR,0.00,WeatherDisplay:10.37,2013-03-29 11:57:00,
2013-03-29 07:02:00,29.8,23.5,30.22,ESE,112,1.1,2.3,77,0.00,CLR,CLR,0.00,WeatherDisplay:10.37,2013-03-29 12:02:00,
2013-03-29 07:07:00,29.8,23.5,30.22,ESE,112,2.4,3.5,77,0.00,CLR,CLR,0.00,WeatherDisplay:10.37,2013-03-29 12:07:00,
2013-03-29 07:12:00,30.0,24.0,30.22,ESE,112,3.1,4.6,78,0.00,CLR,CLR,0.00,WeatherDisplay:10.37,2013-03-29 12:12:00,
2013-03-29 07:17:00,30.0,24.0,30.23,East,90,1.7,3.5,78,0.00,CLR,CLR,0.00,WeatherDisplay:10.37,2013-03-29 12:17:00,
2013-03-29 07:22:00,30.6,24.5,30.22,SE,135,2.9,6.9,78,0.00,CLR,CLR,0.00,WeatherDisplay:10.37,2013-03-29 12:22:00,
2013-03-29 07:28:00,30.7,24.7,30.22,ESE,112,5.0,6.9,78,0.00,CLR,CLR,0.00,WeatherDisplay:10.37,2013-03-29 12:28:00,
2013-03-29 07:33:00,31.1,25.0,30.22,SE,135,5.0,5.8,78,0.00,CLR,CLR,0.00,WeatherDisplay:10.37,2013-03-29 12:33:00,
2013-03-29 07:38:00,31.6,25.6,30.22,SE,135,3.8,4.7,78,0.00,CLR,CLR,0.00,WeatherDisplay:10.37,2013-03-29 12:38:00,
2013-03-29 07:43:00,31.8,25.7,30.22,SE,135,5.3,5.8,78,0.00,CLR,CLR,0.00,WeatherDisplay:10.37,2013-03-29 12:43:00,
2013-03-29 07:48:00,32.5,26.1,30.22,SSE,158,4.0,5.8,77,0.00,CLR,CLR,0.00,WeatherDisplay:10.37,2013-03-29 12:48:00,
2013-03-29 07:53:00,32.7,26.3,30.22,ESE,112,3.4,4.6,77,0.00,CLR,CLR,0.00,WeatherDisplay:10.37,2013-03-29 12:53:00,
2013-03-29 07:58:00,33.1,26.3,30.22,SE,135,5.0,8.1,76,0.00,CLR,CLR,0.00,WeatherDisplay:10.37,2013-03-29 12:58:00,
2013-03-29 08:04:00,33.4,26.7,30.23,SSE,158,3.6,4.6,76,0.00,CLR,CLR,0.00,WeatherDisplay:10.37,2013-03-29 13:04:00,
2013-03-29 08:09:00,33.8,27.0,30.23,SE,135,5.1,6.9,76,0.00,CLR,CLR,0.00,WeatherDisplay:10.37,2013-03-29 13:09:00,
2013-03-29 08:14:00,34.2,27.1,30.22,SE,135,5.3,6.9,75,0.00,CLR,CLR,0.00,WeatherDisplay:10.37,2013-03-29 13:14:00,
2013-03-29 08:19:00,34.5,27.4,30.22,SE,135,4.1,5.8,75,0.00,CLR,CLR,0.00,WeatherDisplay:10.37,2013-03-29 13:19:00,
2013-03-29 08:24:00,34.9,27.4,30.22,SSE,158,4.6,4.6,74,0.00,CLR,CLR,0.00,WeatherDisplay:10.37,2013-03-29 13:24:00,
2013-03-29 08:29:00,35.2,27.8,30.22,SE,135,6.6,8.1,74,0.00,CLR,CLR,0.00,WeatherDisplay:10.37,2013-03-29 13:29:00,
2013-03-29 08:34:00,35.8,28.0,30.22,SE,135,4.5,6.9,73,0.00,CLR,CLR,0.00,WeatherDisplay:10.37,2013-03-29 13:34:00,
2013-03-29 08:40:00,36.7,28.8,30.22,SE,135,4.5,7.6,73,0.00,CLR,CLR,0.00,WeatherDisplay:10.37,2013-03-29 13:40:00,
2013-03-29 08:45:00,37.2,29.0,30.22,ESE,112,5.1,6.9,72,0.00,CLR,CLR,0.00,WeatherDisplay:10.37,2013-03-29 13:45:00,
2013-03-29 08:50:00,37.6,29.0,30.22,SE,135,5.7,8.1,71,0.00,CLR,CLR,0.00,WeatherDisplay:10.37,2013-03-29 13:50:00,
2013-03-29 08:55:00,38.1,29.5,30.22,SSE,158,5.2,6.9,71,0.00,CLR,CLR,0.00,WeatherDisplay:10.37,2013-03-29 13:55:00,
2013-03-29 09:00:00,38.5,29.5,30.23,SE,135,5.9,6.9,70,0.00,CLR,CLR,0.00,WeatherDisplay:10.37,2013-03-29 14:00:00,
2013-03-29 09:05:00,39.0,29.7,30.23,SE,135,3.5,4.5,69,0.00,CLR,CLR,0.00,WeatherDisplay:10.37,2013-03-29 14:05:00,
2013-03-29 09:11:00,39.9,30.2,30.22,ESE,112,3.8,4.6,68,0.00,CLR,CLR,0.00,WeatherDisplay:10.37,2013-03-29 14:11:00,
2013-03-29 09:16:00,40.6,30.9,30.22,South,180,4.5,6.3,68,0.00,CLR,CLR,0.00,WeatherDisplay:10.37,2013-03-29 14:16:00,
2013-03-29 09:22:00,40.8,30.3,30.23,SSE,158,2.6,6.9,66,0.00,CLR,CLR,0.00,WeatherDisplay:10.37,2013-03-29 14:22:00,
2013-03-29 09:27:00,41.0,30.5,30.22,SW,225,3.9,6.9,66,0.00,CLR,CLR,0.00,WeatherDisplay:10.37,2013-03-29 14:27:00,
2013-03-29 09:32:00,41.4,30.5,30.23,SSE,158,6.7,9.2,65,0.00,CLR,CLR,0.00,WeatherDisplay:10.37,2013-03-29 14:32:00,
2013-03-29 09:37:00,41.7,30.8,30.22,SE,135,4.3,8.1,65,0.00,CLR,CLR,0.00,WeatherDisplay:10.37,2013-03-29 14:37:00,
2013-03-29 09:43:00,42.1,31.2,30.22,SE,135,5.4,6.9,65,0.00,CLR,CLR,0.00,WeatherDisplay:10.37,2013-03-29 14:43:00,
2013-03-29 09:48:00,42.4,31.1,30.22,SSE,158,2.7,4.6,64,0.00,CLR,CLR,0.00,WeatherDisplay:10.37,2013-03-29 14:48:00,
2013-03-29 09:53:00,42.6,30.9,30.22,SE,135,6.8,9.2,63,0.00,CLR,CLR,0.00,WeatherDisplay:10.37,2013-03-29 14:53:00,
2013-03-29 09:58:00,43.0,31.2,30.22,South,180,8.6,10.4,63,0.00,CLR,CLR,0.00,WeatherDisplay:10.37,2013-03-29 14:58:00,
2013-03-29 10:03:00,43.7,31.5,30.22,South,180,6.0,9.2,62,0.00,CLR,CLR,0.00,WeatherDisplay:10.37,2013-03-29 15:03:00,
2013-03-29 10:08:00,44.2,32.0,30.21,SE,135,6.7,9.2,62,0.00,CLR,CLR,0.00,WeatherDisplay:10.37,2013-03-29 15:08:00,
2013-03-29 10:14:00,45.0,32.3,30.21,South,180,5.3,6.9,61,0.00,CLR,CLR,0.00,WeatherDisplay:10.37,2013-03-29 15:14:00,
2013-03-29 10:19:00,45.5,32.8,30.21,SE,135,6.3,8.1,61,0.00,CLR,CLR,0.00,WeatherDisplay:10.37,2013-03-29 15:19:00,
2013-03-29 10:24:00,46.0,32.5,30.21,SSE,158,3.7,4.6,59,0.00,CLR,CLR,0.00,WeatherDisplay:10.37,2013-03-29 15:24:00,
2013-03-29 10:29:00,46.6,33.0,30.21,South,180,4.3,6.9,59,0.00,CLR,CLR,0.00,WeatherDisplay:10.37,2013-03-29 15:29:00,
2013-03-29 10:34:00,47.1,33.1,30.21,South,180,4.6,5.8,58,0.00,CLR,CLR,0.00,WeatherDisplay:10.37,2013-03-29 15:34:00,
2013-03-29 10:39:00,48.0,33.5,30.21,ESE,112,6.2,8.1,57,0.00,CLR,CLR,0.00,WeatherDisplay:10.37,2013-03-29 15:39:00,
2013-03-29 10:45:00,49.6,34.6,30.21,South,180,4.5,9.2,56,0.00,CLR,CLR,0.00,WeatherDisplay:10.37,2013-03-29 15:45:00,
2013-03-29 10:50:00,50.5,35.0,30.21,South,180,4.7,8.1,55,0.00,CLR,CLR,0.00,WeatherDisplay:10.37,2013-03-29 15:50:00,
2013-03-29 10:55:00,50.7,34.7,30.21,SSW,202,4.6,9.2,54,0.00,CLR,CLR,0.00,WeatherDisplay:10.37,2013-03-29 15:55:00,
2013-03-29 11:00:00,50.7,34.2,30.21,SE,135,6.3,8.1,53,0.00,CLR,CLR,0.00,WeatherDisplay:10.37,2013-03-29 16:00:00,
2013-03-29 11:05:00,50.5,34.0,30.21,SE,135,5.0,6.9,53,0.00,CLR,CLR,0.00,WeatherDisplay:10.37,2013-03-29 16:05:00,
2013-03-29 11:10:00,49.8,32.9,30.21,SSE,158,5.2,6.9,52,0.00,CLR,CLR,0.00,WeatherDisplay:10.37,2013-03-29 16:10:00,
2013-03-29 11:15:00,49.6,33.2,30.21,SSE,158,7.3,9.2,53,0.00,CLR,CLR,0.00,WeatherDisplay:10.37,2013-03-29 16:15:00,
2013-03-29 11:20:00,49.6,33.2,30.21,SSE,158,3.1,5.1,53,0.00,CLR,CLR,0.00,WeatherDisplay:10.37,2013-03-29 16:20:00,
2013-03-29 11:25:00,50.2,33.7,30.20,ESE,112,4.5,5.8,53,0.00,CLR,CLR,0.00,WeatherDisplay:10.37,2013-03-29 16:25:00,
2013-03-29 11:31:00,50.7,34.2,30.20,South,180,4.2,10.4,53,0.00,CLR,CLR,0.00,WeatherDisplay:10.37,2013-03-29 16:31:00,
2013-03-29 11:36:00,50.9,33.9,30.20,SE,135,5.4,6.9,52,0.00,CLR,CLR,0.00,WeatherDisplay:10.37,2013-03-29 16:36:00,
2013-03-29 11:41:00,50.7,33.7,30.20,SSE,158,4.8,8.1,52,0.00,CLR,CLR,0.00,WeatherDisplay:10.37,2013-03-29 16:41:00,
2013-03-29 11:47:00,51.1,34.1,30.20,SSE,158,5.7,9.2,52,0.00,CLR,CLR,0.00,WeatherDisplay:10.37,2013-03-29 16:47:00,
2013-03-29 11:52:00,51.6,34.6,30.20,SE,135,6.5,7.4,52,0.00,CLR,CLR,0.00,WeatherDisplay:10.37,2013-03-29 16:52:00,
2013-03-29 11:58:00,52.3,34.7,30.20,SSE,158,4.6,6.9,51,0.00,CLR,CLR,0.00,WeatherDisplay:10.37,2013-03-29 16:58:00,
2013-03-29 12:03:00,52.9,34.7,30.20,SE,135,6.3,8.1,50,0.00,CLR,CLR,0.00,WeatherDisplay:10.37,2013-03-29 17:03:00,
2013-03-29 12:08:00,53.4,35.2,30.19,ESE,112,3.6,5.8,50,0.00,CLR,CLR,0.00,WeatherDisplay:10.37,2013-03-29 17:08:00,
2013-03-29 12:13:00,53.8,35.1,30.19,South,180,4.8,6.9,49,0.00,CLR,CLR,0.00,WeatherDisplay:10.37,2013-03-29 17:13:00,
2013-03-29 12:18:00,54.5,35.7,30.19,SSE,158,5.9,8.1,49,0.00,CLR,CLR,0.00,WeatherDisplay:10.37,2013-03-29 17:18:00,
2013-03-29 12:23:00,54.7,35.4,30.19,SE,135,3.9,5.8,48,0.00,CLR,CLR,0.00,WeatherDisplay:10.37,2013-03-29 17:23:00,
2013-03-29 12:29:00,55.0,35.2,30.19,South,180,5.5,7.8,47,0.00,CLR,CLR,0.00,WeatherDisplay:10.37,2013-03-29 17:29:00,
2013-03-29 12:34:00,54.7,34.8,30.19,SE,135,5.9,8.1,47,0.00,CLR,CLR,0.00,WeatherDisplay:10.37,2013-03-29 17:34:00,
2013-03-29 12:39:00,54.7,34.8,30.19,SSE,158,4.6,8.1,47,0.00,CLR,CLR,0.00,WeatherDisplay:10.37,2013-03-29 17:39:00,
2013-03-29 12:44:00,55.2,35.3,30.19,South,180,2.0,4.6,47,0.00,CLR,CLR,0.00,WeatherDisplay:10.37,2013-03-29 17:44:00,
2013-03-29 12:49:00,55.8,35.8,30.19,South,180,5.0,8.1,47,0.00,CLR,CLR,0.00,WeatherDisplay:10.37,2013-03-29 17:49:00,
2013-03-29 12:54:00,55.9,36.0,30.19,SE,135,5.8,10.4,47,0.00,CLR,CLR,0.00,WeatherDisplay:10.37,2013-03-29 17:54:00,
2013-03-29 12:59:00,56.1,35.6,30.18,SSE,158,4.4,6.9,46,0.00,CLR,CLR,0.00,WeatherDisplay:10.37,2013-03-29 17:59:00,
2013-03-29 13:05:00,55.9,35.4,30.18,SSE,158,3.1,5.8,46,0.00,CLR,CLR,0.00,WeatherDisplay:10.37,2013-03-29 18:05:00,
2013-03-29 13:10:00,55.9,35.4,30.18,SSE,158,4.9,6.9,46,0.00,CLR,CLR,0.00,WeatherDisplay:10.37,2013-03-29 18:10:00,
2013-03-29 13:15:00,56.1,35.6,30.18,South,180,2.0,4.6,46,0.00,CLR,CLR,0.00,WeatherDisplay:10.37,2013-03-29 18:15:00,
2013-03-29 13:20:00,56.7,36.1,30.18,South,180,4.0,4.6,46,0.00,CLR,CLR,0.00,WeatherDisplay:10.37,2013-03-29 18:20:00,
2013-03-29 13:25:00,56.3,35.8,30.18,South,180,4.1,4.6,46,0.00,CLR,CLR,0.00,WeatherDisplay:10.37,2013-03-29 18:25:00,
2013-03-29 13:30:00,56.1,35.6,30.18,South,180,3.5,5.8,46,0.00,CLR,CLR,0.00,WeatherDisplay:10.37,2013-03-29 18:30:00,
2013-03-29 13:36:00,56.3,35.8,30.17,SSE,158,5.9,6.9,46,0.00,CLR,CLR,0.00,WeatherDisplay:10.37,2013-03-29 18:36:00,
2013-03-29 13:41:00,56.1,35.6,30.17,NE,45,4.4,6.9,46,0.00,CLR,CLR,0.00,WeatherDisplay:10.37,2013-03-29 18:41:00,
2013-03-29 13:46:00,55.9,35.4,30.17,ESE,112,1.2,3.5,46,0.00,CLR,CLR,0.00,WeatherDisplay:10.37,2013-03-29 18:46:00,
2013-03-29 13:51:00,55.8,35.3,30.16,ESE,112,4.8,6.9,46,0.00,CLR,CLR,0.00,WeatherDisplay:10.37,2013-03-29 18:51:00,
2013-03-29 13:56:00,55.2,34.8,30.16,SE,135,5.6,7.4,46,0.00,CLR,CLR,0.00,WeatherDisplay:10.37,2013-03-29 18:56:00,
2013-03-29 14:01:00,54.7,34.3,30.16,South,180,3.5,8.1,46,0.00,CLR,CLR,0.00,WeatherDisplay:10.37,2013-03-29 19:01:00,
2013-03-29 14:06:00,54.3,34.0,30.16,SSE,158,4.8,8.1,46,0.00,CLR,CLR,0.00,WeatherDisplay:10.37,2013-03-29 19:06:00,
2013-03-29 14:11:00,53.8,34.0,30.16,SE,135,7.1,9.2,47,0.00,CLR,CLR,0.00,WeatherDisplay:10.37,2013-03-29 19:11:00,
2013-03-29 14:17:00,53.4,34.2,30.15,SE,135,5.3,8.7,48,0.00,CLR,CLR,0.00,WeatherDisplay:10.37,2013-03-29 19:17:00,
2013-03-29 14:22:00,53.8,34.5,30.15,SSE,158,6.1,6.9,48,0.00,CLR,CLR,0.00,WeatherDisplay:10.37,2013-03-29 19:22:00,
2013-03-29 14:27:00,53.8,34.5,30.15,ESE,112,7.3,9.2,48,0.00,CLR,CLR,0.00,WeatherDisplay:10.37,2013-03-29 19:27:00,
2013-03-29 14:33:00,53.8,34.5,30.14,SE,135,7.5,9.2,48,0.00,CLR,CLR,0.00,WeatherDisplay:10.37,2013-03-29 19:33:00,
2013-03-29 14:38:00,54.0,34.7,30.14,SE,135,7.2,9.2,48,0.00,CLR,CLR,0.00,WeatherDisplay:10.37,2013-03-29 19:38:00,
2013-03-29 14:43:00,53.8,34.5,30.15,South,180,6.9,10.4,48,0.00,CLR,CLR,0.00,WeatherDisplay:10.37,2013-03-29 19:43:00,
2013-03-29 14:48:00,53.4,34.2,30.14,SE,135,3.5,6.9,48,0.00,CLR,CLR,0.00,WeatherDisplay:10.37,2013-03-29 19:48:00,
2013-03-29 14:54:00,53.4,34.2,30.14,SSE,158,5.0,9.4,48,0.00,CLR,CLR,0.00,WeatherDisplay:10.37,2013-03-29 19:54:00,
2013-03-29 14:59:00,53.4,34.2,30.14,SE,135,7.9,9.2,48,0.00,CLR,CLR,0.00,WeatherDisplay:10.37,2013-03-29 19:59:00,
2013-03-29 15:04:00,53.4,34.2,30.14,ESE,112,8.9,11.5,48,0.00,CLR,CLR,0.00,WeatherDisplay:10.37,2013-03-29 20:04:00,
2013-03-29 15:09:00,53.2,34.0,30.14,SSE,158,7.1,9.2,48,0.00,CLR,CLR,0.00,WeatherDisplay:10.37,2013-03-29 20:09:00,
2013-03-29 15:14:00,53.1,34.4,30.13,SSE,158,5.0,9.2,49,0.00,CLR,CLR,0.00,WeatherDisplay:10.37,2013-03-29 20:14:00,
2013-03-29 15:19:00,53.4,34.7,30.13,SE,135,8.2,11.5,49,0.00,CLR,CLR,0.00,WeatherDisplay:10.37,2013-03-29 20:19:00,
2013-03-29 15:24:00,53.8,34.5,30.13,SSE,158,7.0,11.5,48,0.00,CLR,CLR,0.00,WeatherDisplay:10.37,2013-03-29 20:24:00,
2013-03-29 15:30:00,53.8,34.5,30.12,SE,135,5.3,9.2,48,0.00,CLR,CLR,0.00,WeatherDisplay:10.37,2013-03-29 20:30:00,
2013-03-29 15:35:00,54.1,34.9,30.12,ESE,112,8.1,10.4,48,0.00,CLR,CLR,0.00,WeatherDisplay:10.37,2013-03-29 20:35:00,
2013-03-29 15:40:00,54.7,35.4,30.12,SE,135,8.2,12.7,48,0.00,CLR,CLR,0.00,WeatherDisplay:10.37,2013-03-29 20:40:00,
2013-03-29 15:45:00,55.0,35.2,30.12,SE,135,5.0,10.4,47,0.00,CLR,CLR,0.00,WeatherDisplay:10.37,2013-03-29 20:45:00,
2013-03-29 15:50:00,54.9,35.0,30.12,SSE,158,6.7,9.2,47,0.00,CLR,CLR,0.00,WeatherDisplay:10.37,2013-03-29 20:50:00,
2013-03-29 15:55:00,54.7,34.8,30.12,SE,135,6.5,10.4,47,0.00,CLR,CLR,0.00,WeatherDisplay:10.37,2013-03-29 20:55:00,
2013-03-29 16:00:00,54.1,34.9,30.12,South,180,7.6,9.2,48,0.00,CLR,CLR,0.00,WeatherDisplay:10.37,2013-03-29 21:00:00,
2013-03-29 16:05:00,53.8,34.5,30.11,SSE,158,7.3,10.4,48,0.00,CLR,CLR,0.00,WeatherDisplay:10.37,2013-03-29 21:05:00,
2013-03-29 16:10:00,53.6,34.9,30.11,South,180,8.1,9.2,49,0.00,CLR,CLR,0.00,WeatherDisplay:10.37,2013-03-29 21:10:00,
2013-03-29 16:15:00,53.2,34.6,30.11,SSE,158,4.5,10.4,49,0.00,CLR,CLR,0.00,WeatherDisplay:10.37,2013-03-29 21:15:00,
2013-03-29 16:21:00,53.2,35.1,30.11,South,180,7.2,9.6,50,0.00,CLR,CLR,0.00,WeatherDisplay:10.37,2013-03-29 21:21:00,
2013-03-29 16:26:00,53.4,35.2,30.10,SSE,158,4.9,6.9,50,0.00,CLR,CLR,0.00,WeatherDisplay:10.37,2013-03-29 21:26:00,
2013-03-29 16:31:00,53.8,36.1,30.10,SSE,158,5.4,6.9,51,0.00,CLR,CLR,0.00,WeatherDisplay:10.37,2013-03-29 21:31:00,
2013-03-29 16:36:00,54.3,36.1,30.10,South,180,5.8,9.2,50,0.00,CLR,CLR,0.00,WeatherDisplay:10.37,2013-03-29 21:36:00,
2013-03-29 16:42:00,54.5,36.2,30.10,SE,135,5.2,6.9,50,0.00,CLR,CLR,0.00,WeatherDisplay:10.37,2013-03-29 21:42:00,
2013-03-29 16:47:00,54.7,36.4,30.10,SE,135,6.0,10.4,50,0.00,CLR,CLR,0.00,WeatherDisplay:10.37,2013-03-29 21:47:00,
2013-03-29 16:52:00,54.7,36.4,30.10,SSE,158,4.6,6.5,50,0.00,CLR,CLR,0.00,WeatherDisplay:10.37,2013-03-29 21:52:00,
2013-03-29 16:57:00,55.2,36.9,30.10,SE,135,9.3,11.5,50,0.00,CLR,CLR,0.00,WeatherDisplay:10.37,2013-03-29 21:57:00,
2013-03-29 17:03:00,55.0,36.7,30.09,SSE,158,6.5,8.1,50,0.00,CLR,CLR,0.00,WeatherDisplay:10.37,2013-03-29 22:03:00,
2013-03-29 17:08:00,54.7,36.4,30.09,SSE,158,6.7,8.1,50,0.00,CLR,CLR,0.00,WeatherDisplay:10.37,2013-03-29 22:08:00,
2013-03-29 17:13:00,54.7,36.4,30.09,SSE,158,4.1,6.9,50,0.00,CLR,CLR,0.00,WeatherDisplay:10.37,2013-03-29 22:13:00,
2013-03-29 17:18:00,54.5,36.7,30.09,SE,135,10.3,10.4,51,0.00,CLR,CLR,0.00,WeatherDisplay:10.37,2013-03-29 22:18:00,
2013-03-29 17:23:00,54.3,36.6,30.09,SSE,158,5.8,11.5,51,0.00,CLR,CLR,0.00,WeatherDisplay:10.37,2013-03-29 22:23:00,
2013-03-29 17:28:00,54.0,36.2,30.09,SE,135,6.7,11.2,51,0.00,CLR,CLR,0.00,WeatherDisplay:10.37,2013-03-29 22:28:00,
2013-03-29 17:33:00,53.4,35.7,30.09,SE,135,8.8,9.2,51,0.00,CLR,CLR,0.00,WeatherDisplay:10.37,2013-03-29 22:33:00,
2013-03-29 17:39:00,53.2,36.1,30.09,SE,135,7.6,10.4,52,0.00,CLR,CLR,0.00,WeatherDisplay:10.37,2013-03-29 22:39:00,
2013-03-29 17:44:00,52.9,35.7,30.09,SSE,158,7.0,10.4,52,0.00,CLR,CLR,0.00,WeatherDisplay:10.37,2013-03-29 22:44:00,
2013-03-29 17:49:00,52.7,36.0,30.09,SE,135,4.5,7.4,53,0.00,CLR,CLR,0.00,WeatherDisplay:10.37,2013-03-29 22:49:00,
2013-03-29 17:54:00,52.3,35.7,30.09,South,180,4.0,9.2,53,0.00,CLR,CLR,0.00,WeatherDisplay:10.37,2013-03-29 22:54:00,
2013-03-29 17:59:00,52.3,36.2,30.08,SSE,158,4.7,9.2,54,0.00,CLR,CLR,0.00,WeatherDisplay:10.37,2013-03-29 22:59:00,
2013-03-29 18:04:00,52.0,35.8,30.09,SE,135,7.4,10.4,54,0.00,CLR,CLR,0.00,WeatherDisplay:10.37,2013-03-29 23:04:00,
2013-03-29 18:09:00,52.0,36.3,30.08,SSE,158,5.5,6.9,55,0.00,CLR,CLR,0.00,WeatherDisplay:10.37,2013-03-29 23:09:00,
2013-03-29 18:15:00,52.0,36.3,30.08,SE,135,8.7,11.5,55,0.00,CLR,CLR,0.00,WeatherDisplay:10.37,2013-03-29 23:15:00,
2013-03-29 18:20:00,52.0,36.3,30.08,SE,135,9.4,12.7,55,0.00,CLR,CLR,0.00,WeatherDisplay:10.37,2013-03-29 23:20:00,
2013-03-29 18:25:00,51.6,36.0,30.08,SE,135,4.2,5.8,55,0.00,CLR,CLR,0.00,WeatherDisplay:10.37,2013-03-29 23:25:00,
2013-03-29 18:30:00,51.4,35.8,30.08,SE,135,3.7,8.1,55,0.00,CLR,CLR,0.00,WeatherDisplay:10.37,2013-03-29 23:30:00,
2013-03-29 18:35:00,51.1,35.5,30.08,SE,135,3.3,8.1,55,0.00,CLR,CLR,0.00,WeatherDisplay:10.37,2013-03-29 23:35:00,
2013-03-29 18:40:00,50.7,35.6,30.08,SE,135,5.6,5.6,56,0.00,CLR,CLR,0.00,WeatherDisplay:10.37,2013-03-29 23:40:00,
2013-03-29 18:45:00,50.2,35.1,30.08,SSE,158,4.0,5.8,56,0.00,CLR,CLR,0.00,WeatherDisplay:10.37,2013-03-29 23:45:00,
2013-03-29 18:51:00,50.2,35.5,30.08,SSE,158,5.4,8.1,57,0.00,CLR,CLR,0.00,WeatherDisplay:10.37,2013-03-29 23:51:00,
2013-03-29 18:57:00,50.0,35.8,30.07,South,180,3.6,5.8,58,0.00,CLR,CLR,0.00,WeatherDisplay:10.37,2013-03-29 23:57:00,
2013-03-29 19:02:00,49.6,35.5,30.07,SSE,158,6.6,9.2,58,0.00,CLR,CLR,0.00,WeatherDisplay:10.37,2013-03-30 00:02:00,
2013-03-29 19:07:00,48.9,35.2,30.07,SSE,158,7.0,8.1,59,0.00,CLR,CLR,0.00,WeatherDisplay:10.37,2013-03-30 00:07:00,
2013-03-29 19:12:00,48.0,34.4,30.07,SSE,158,5.4,6.9,59,0.00,CLR,CLR,0.00,WeatherDisplay:10.37,2013-03-30 00:12:00,
2013-03-29 19:17:00,47.3,34.1,30.07,SSE,158,6.0,8.1,60,0.00,CLR,CLR,0.00,WeatherDisplay:10.37,2013-03-30 00:17:00,
2013-03-29 19:22:00,46.6,33.8,30.07,SE,135,5.6,6.9,61,0.00,CLR,CLR,0.00,WeatherDisplay:10.37,2013-03-30 00:22:00,
2013-03-29 19:28:00,46.0,33.7,30.07,SE,135,5.0,10.4,62,0.00,CLR,CLR,0.00,WeatherDisplay:10.37,2013-03-30 00:28:00,
2013-03-29 19:33:00,45.5,34.0,30.07,SE,135,4.6,4.6,64,0.00,CLR,CLR,0.00,WeatherDisplay:10.37,2013-03-30 00:33:00,
2013-03-29 19:38:00,45.1,34.1,30.07,SSE,158,5.9,8.1,65,0.00,CLR,CLR,0.00,WeatherDisplay:10.37,2013-03-30 00:38:00,
2013-03-29 19:43:00,45.0,33.9,30.07,SE,135,3.9,4.9,65,0.00,CLR,CLR,0.00,WeatherDisplay:10.37,2013-03-30 00:43:00,
2013-03-29 19:48:00,44.8,34.1,30.07,South,180,4.1,6.9,66,0.00,CLR,CLR,0.00,WeatherDisplay:10.37,2013-03-30 00:48:00,
2013-03-29 19:54:00,44.4,34.1,30.07,SE,135,4.2,6.9,67,0.00,CLR,CLR,0.00,WeatherDisplay:10.37,2013-03-30 00:54:00,
2013-03-29 19:59:00,44.4,34.1,30.07,SSE,158,4.7,5.8,67,0.00,CLR,CLR,0.00,WeatherDisplay:10.37,2013-03-30 00:59:00,
2013-03-29 20:04:00,44.2,34.0,30.06,SE,135,0.8,2.3,67,0.00,CLR,CLR,0.00,WeatherDisplay:10.37,2013-03-30 01:04:00,
2013-03-29 20:09:00,43.9,33.6,30.06,ESE,112,4.2,6.9,67,0.00,CLR,CLR,0.00,WeatherDisplay:10.37,2013-03-30 01:09:00,
2013-03-29 20:14:00,43.7,33.5,30.06,SSE,158,4.9,6.9,67,0.00,CLR,CLR,0.00,WeatherDisplay:10.37,2013-03-30 01:14:00,
2013-03-29 20:19:00,43.5,33.7,30.06,SE,135,3.2,4.6,68,0.00,CLR,CLR,0.00,WeatherDisplay:10.37,2013-03-30 01:19:00,
2013-03-29 20:24:00,43.3,33.5,30.06,ESE,112,2.6,3.5,68,0.00,CLR,CLR,0.00,WeatherDisplay:10.37,2013-03-30 01:24:00,
2013-03-29 20:29:00,43.2,33.3,30.06,SE,135,3.7,5.8,68,0.00,CLR,CLR,0.00,WeatherDisplay:10.37,2013-03-30 01:29:00,
2013-03-29 20:35:00,43.0,33.1,30.06,SSE,158,3.6,6.9,68,0.00,CLR,CLR,0.00,WeatherDisplay:10.37,2013-03-30 01:35:00,
2013-03-29 20:40:00,43.0,33.5,30.06,SSE,158,3.0,5.8,69,0.00,CLR,CLR,0.00,WeatherDisplay:10.37,2013-03-30 01:40:00,
2013-03-29 20:45:00,42.8,33.3,30.05,SE,135,4.1,6.9,69,0.00,CLR,CLR,0.00,WeatherDisplay:10.37,2013-03-30 01:45:00,
2013-03-29 20:50:00,42.6,33.2,30.06,SE,135,4.0,4.6,69,0.00,CLR,CLR,0.00,WeatherDisplay:10.37,2013-03-30 01:50:00,
2013-03-29 20:56:00,42.6,33.2,30.05,SE,135,3.4,4.6,69,0.00,CLR,CLR,0.00,WeatherDisplay:10.37,2013-03-30 01:56:00,
2013-03-29 21:01:00,42.4,33.3,30.06,South,180,2.8,5.8,70,0.00,CLR,CLR,0.00,WeatherDisplay:10.37,2013-03-30 02:01:00,
2013-03-29 21:06:00,42.4,33.7,30.06,East,90,3.7,4.6,71,0.00,CLR,CLR,0.00,WeatherDisplay:10.37,2013-03-30 02:06:00,
2013-03-29 21:11:00,42.4,33.7,30.06,SE,135,1.9,3.5,71,0.00,CLR,CLR,0.00,WeatherDisplay:10.37,2013-03-30 02:11:00,
2013-03-29 21:17:00,42.4,33.7,30.05,SE,135,2.4,3.5,71,0.00,CLR,CLR,0.00,WeatherDisplay:10.37,2013-03-30 02:17:00,
2013-03-29 21:22:00,42.4,33.7,30.05,ESE,112,3.8,4.6,71,0.00,CLR,CLR,0.00,WeatherDisplay:10.37,2013-03-30 02:22:00,
2013-03-29 21:27:00,42.4,34.0,30.05,SSE,158,2.6,3.5,72,0.00,CLR,CLR,0.00,WeatherDisplay:10.37,2013-03-30 02:27:00,
2013-03-29 21:32:00,42.4,34.0,30.06,SE,135,2.9,4.6,72,0.00,CLR,CLR,0.00,WeatherDisplay:10.37,2013-03-30 02:32:00,
2013-03-29 21:37:00,42.3,33.9,30.06,ESE,112,3.5,4.6,72,0.00,CLR,CLR,0.00,WeatherDisplay:10.37,2013-03-30 02:37:00,
2013-03-29 21:43:00,42.1,33.7,30.05,SSE,158,3.1,4.6,72,0.00,CLR,CLR,0.00,WeatherDisplay:10.37,2013-03-30 02:43:00,
2013-03-29 21:48:00,42.1,34.0,30.05,SE,135,2.7,3.5,73,0.00,CLR,CLR,0.00,WeatherDisplay:10.37,2013-03-30 02:48:00,
2013-03-29 21:53:00,42.1,34.0,30.05,SE,135,2.8,5.8,73,0.00,CLR,CLR,0.00,WeatherDisplay:10.37,2013-03-30 02:53:00,
2013-03-29 21:58:00,42.1,34.0,30.05,East,90,2.4,3.5,73,0.00,CLR,CLR,0.00,WeatherDisplay:10.37,2013-03-30 02:58:00,
2013-03-29 22:03:00,41.9,33.9,30.05,ESE,112,1.5,3.5,73,0.00,CLR,CLR,0.00,WeatherDisplay:10.37,2013-03-30 03:03:00,
2013-03-29 22:08:00,41.9,33.9,30.05,ESE,112,1.8,3.5,73,0.00,CLR,CLR,0.00,WeatherDisplay:10.37,2013-03-30 03:08:00,
2013-03-29 22:14:00,41.7,34.0,30.05,ESE,112,1.4,2.3,74,0.00,CLR,CLR,0.00,WeatherDisplay:10.37,2013-03-30 03:14:00,
2013-03-29 22:19:00,41.7,34.0,30.05,SE,135,2.6,3.5,74,0.00,CLR,CLR,0.00,WeatherDisplay:10.37,2013-03-30 03:19:00,
2013-03-29 22:24:00,41.5,33.9,30.04,SE,135,3.0,3.8,74,0.00,CLR,CLR,0.00,WeatherDisplay:10.37,2013-03-30 03:24:00,
2013-03-29 22:29:00,41.5,34.2,30.04,ESE,112,2.2,3.5,75,0.00,CLR,CLR,0.00,WeatherDisplay:10.37,2013-03-30 03:29:00,
2013-03-29 22:34:00,41.4,34.0,30.04,East,90,3.0,4.6,75,0.00,CLR,CLR,0.00,WeatherDisplay:10.37,2013-03-30 03:34:00,
2013-03-29 22:40:00,41.2,33.9,30.04,SE,135,6.6,8.1,75,0.00,CLR,CLR,0.00,WeatherDisplay:10.37,2013-03-30 03:40:00,
2013-03-29 22:45:00,41.0,34.0,30.04,SE,135,3.3,4.6,76,0.00,CLR,CLR,0.00,WeatherDisplay:10.37,2013-03-30 03:45:00,
2013-03-29 22:50:00,40.8,33.8,30.03,ESE,112,3.8,5.8,76,0.00,CLR,CLR,0.00,WeatherDisplay:10.37,2013-03-30 03:50:00,
2013-03-29 22:55:00,40.8,33.8,30.03,SE,135,2.8,4.6,76,0.00,CLR,CLR,0.00,WeatherDisplay:10.37,2013-03-30 03:55:00,
2013-03-29 23:00:00,40.8,33.8,30.03,East,90,2.7,3.6,76,0.00,CLR,CLR,0.00,WeatherDisplay:10.37,2013-03-30 04:00:00,
2013-03-29 23:01:00,40.8,33.8,30.03,SE,135,3.4,3.5,76,0.00,CLR,CLR,0.00,WeatherDisplay:10.37,2013-03-30 04:01:00,
2013-03-29 23:06:00,40.8,34.2,30.03,ESE,112,2.4,4.6,77,0.00,CLR,CLR,0.00,WeatherDisplay:10.37,2013-03-30 04:06:00,
2013-03-29 23:11:00,40.8,34.2,30.03,ESE,112,1.9,4.6,77,0.00,CLR,CLR,0.00,WeatherDisplay:10.37,2013-03-30 04:11:00,
2013-03-29 23:17:00,40.8,34.2,30.03,ESE,112,1.7,3.5,77,0.00,CLR,CLR,0.00,WeatherDisplay:10.37,2013-03-30 04:17:00,
2013-03-29 23:22:00,40.6,34.0,30.03,SE,135,3.8,4.6,77,0.00,CLR,CLR,0.00,WeatherDisplay:10.37,2013-03-30 04:22:00,
2013-03-29 23:27:00,40.6,34.0,30.03,ESE,112,4.4,5.8,77,0.00,CLR,CLR,0.00,WeatherDisplay:10.37,2013-03-30 04:27:00,
2013-03-29 23:32:00,40.6,34.0,30.02,SE,135,4.0,5.8,77,0.00,CLR,CLR,0.00,WeatherDisplay:10.37,2013-03-30 04:32:00,
2013-03-29 23:37:00,40.6,34.3,30.01,SE,135,5.7,5.8,78,0.00,CLR,CLR,0.00,WeatherDisplay:10.37,2013-03-30 04:37:00,
2013-03-29 23:42:00,40.3,34.0,30.01,ESE,112,6.1,8.1,78,0.00,CLR,CLR,0.00,WeatherDisplay:10.37,2013-03-30 04:42:00,
2013-03-29 23:47:00,40.3,34.0,30.01,SE,135,7.1,8.1,78,0.00,CLR,CLR,0.00,WeatherDisplay:10.37,2013-03-30 04:47:00,
2013-03-29 23:52:00,40.1,33.8,30.00,ESE,112,5.4,8.1,78,0.00,CLR,CLR,0.00,WeatherDisplay:10.37,2013-03-30 04:52:00,
2013-03-29 23:57:00,39.9,33.6,30.00,SSE,158,3.1,4.6,78,0.00,CLR,CLR,0.00,WeatherDisplay:10.37,2013-03-30 04:57:00,